createdAt,value
2022-12-31T01:23:06.720Z,107.80
2022-12-31T01:26:08.455Z,106.90
2022-12-31T01:28:46.630Z,93.60
2022-12-31T01:31:18.523Z,113.30
2022-12-31T01:33:52.138Z,118.70
2022-12-31T01:36:29.846Z,120.80
2022-12-31T01:54:44.255Z,140.20
2022-12-31T01:57:12.476Z,143.10
2022-12-31T01:59:40.444Z,129.50
2022-12-31T02:02:07.532Z,130.10
2022-12-31T02:05:23.290Z,136.30
2022-12-31T02:08:21.863Z,120.70
2022-12-31T02:29:11.663Z,107.90
2022-12-31T02:32:40.460Z,117.10
2022-12-31T02:35:20.243Z,106.10
2022-12-31T02:38:15.826Z,113.60
2022-12-31T02:41:01.594Z,121.70
2022-12-31T02:43:38.653Z,107.30
2022-12-31T02:50:56.207Z,131.80
2022-12-31T02:54:21.311Z,128.90
2022-12-31T03:04:29.141Z,101.10
2022-12-31T03:07:23.591Z,101.80
2022-12-31T03:13:08.339Z,112.00
2022-12-31T03:15:43.387Z,127.40
2022-12-31T03:18:16.145Z,122.30
2022-12-31T03:40:00.243Z,87.90
2022-12-31T03:42:27.504Z,93.40
2022-12-31T03:44:54.596Z,93.90
2022-12-31T03:47:21.726Z,92.80
2022-12-31T03:49:48.775Z,103.70
2022-12-31T03:52:16.568Z,93.30
2022-12-31T03:54:51.721Z,95.80
2022-12-31T03:57:24.132Z,97.90
2022-12-31T04:02:48.122Z,99.90
2022-12-31T04:05:19.845Z,98.60
2022-12-31T04:07:48.959Z,105.80
2022-12-31T04:10:22.212Z,101.00
2022-12-31T04:12:55.232Z,116.20
2022-12-31T04:15:25.923Z,121.40
2022-12-31T04:17:57.311Z,109.10
2022-12-31T04:20:25.054Z,103.50
2022-12-31T04:22:52.135Z,93.80
2022-12-31T04:30:07.760Z,93.90
2022-12-31T04:33:30.401Z,86.60
2022-12-31T04:36:06.864Z,81.80
2022-12-31T04:39:17.780Z,76.10
2022-12-31T05:07:31.794Z,68.50
2022-12-31T05:10:02.956Z,73.90
2022-12-31T06:32:10.019Z,97.30
2022-12-31T06:38:11.535Z,105.10
2022-12-31T06:40:43.057Z,114.70
2022-12-31T06:51:37.179Z,97.10
2022-12-31T06:54:08.045Z,102.10
2022-12-31T07:16:19.601Z,82.00
2022-12-31T07:38:31.207Z,84.30
2022-12-31T07:41:20.993Z,65.80
2022-12-31T07:44:10.042Z,70.20
2022-12-31T07:46:57.778Z,72.90
2022-12-31T07:49:51.783Z,66.40
2022-12-31T08:00:41.339Z,65.60
2022-12-31T08:08:11.933Z,69.60
2022-12-31T08:11:10.753Z,73.80
2022-12-31T08:14:18.736Z,76.30
2022-12-31T08:17:22.917Z,81.20
2022-12-31T08:20:15.439Z,80.10
2022-12-31T08:23:01.607Z,72.40
2022-12-31T08:26:06.799Z,84.00
2022-12-31T08:29:05.124Z,75.70
2022-12-31T08:35:36.688Z,63.40
2022-12-31T08:38:33.093Z,58.50
2022-12-31T08:41:50.861Z,56.80
2022-12-31T08:45:50.910Z,50.00
2022-12-31T08:49:20.782Z,53.60
2022-12-31T08:51:55.280Z,56.80
2022-12-31T08:54:42.115Z,55.30
2022-12-31T08:57:44.974Z,62.40
2022-12-31T09:00:18.832Z,58.70
2022-12-31T09:06:51.428Z,60.00
2022-12-31T09:10:47.435Z,56.20
2022-12-31T09:14:14.400Z,63.00
2022-12-31T09:29:46.175Z,71.90
2022-12-31T09:43:01.107Z,64.80
2022-12-31T09:50:33.060Z,67.20
2022-12-31T09:53:19.447Z,61.90
2022-12-31T09:56:06.944Z,54.00
2022-12-31T10:25:04.648Z,65.30
2022-12-31T10:27:55.215Z,70.20
2022-12-31T10:30:27.729Z,70.40
2022-12-31T10:33:08.811Z,66.30
2022-12-31T10:39:24.634Z,67.20
2022-12-31T10:42:24.799Z,67.00
2022-12-31T10:45:32.905Z,63.70
2022-12-31T10:48:26.507Z,62.70
2022-12-31T10:54:16.165Z,55.90
2022-12-31T10:57:16.561Z,57.50
2022-12-31T11:00:42.959Z,55.20
2022-12-31T11:13:23.550Z,46.90
2022-12-31T11:16:04.667Z,48.00
2022-12-31T11:23:03.504Z,57.00
2022-12-31T11:25:50.055Z,51.90
2022-12-31T11:29:12.580Z,51.00
2022-12-31T11:39:57.427Z,47.90
2022-12-31T11:51:50.919Z,44.10
2022-12-31T12:40:33.715Z,66.30
2022-12-31T12:43:03.309Z,70.90
2022-12-31T12:45:51.878Z,70.10
2022-12-31T12:48:30.992Z,66.90
2022-12-31T12:50:59.734Z,64.50
2022-12-31T12:53:36.938Z,67.00
2022-12-31T12:56:52.628Z,67.00
2022-12-31T12:59:20.692Z,66.90
2022-12-31T13:02:11.518Z,66.30
2022-12-31T13:04:45.217Z,70.90
2022-12-31T13:07:21.504Z,69.20
2022-12-31T13:58:46.736Z,69.10
2022-12-31T14:01:33.619Z,63.30
2022-12-31T14:04:15.138Z,63.60
2022-12-31T14:06:55.220Z,64.50
2022-12-31T14:15:51.932Z,66.20
2022-12-31T14:18:41.961Z,77.20
2022-12-31T14:21:42.462Z,91.70
2022-12-31T14:24:19.048Z,116.20
2022-12-31T14:26:54.153Z,127.10
2022-12-31T14:29:40.595Z,128.50
2022-12-31T14:32:17.624Z,109.20
2022-12-31T14:37:37.084Z,137.80
2022-12-31T14:40:14.549Z,111.90
2022-12-31T15:01:18.992Z,118.30
2022-12-31T15:03:51.626Z,122.70
2022-12-31T15:19:46.441Z,129.20
2022-12-31T15:22:33.080Z,145.70
2022-12-31T15:27:37.199Z,139.70
2022-12-31T15:30:09.466Z,147.80
2022-12-31T15:32:49.393Z,224.90
2022-12-31T15:35:22.840Z,246.70
2022-12-31T15:38:16.969Z,315.00
2022-12-31T15:40:52.089Z,191.80
2022-12-31T15:44:01.415Z,155.20
2022-12-31T15:46:33.497Z,116.80
2022-12-31T15:49:15.317Z,120.70
2022-12-31T15:51:46.121Z,109.50
2022-12-31T15:54:42.682Z,120.30
2022-12-31T15:57:29.424Z,138.80
2022-12-31T16:00:04.063Z,143.10
2022-12-31T16:18:20.823Z,135.10
2022-12-31T16:20:51.366Z,257.50
2022-12-31T16:23:25.305Z,349.10
2022-12-31T16:25:58.111Z,389.60
2022-12-31T16:28:36.839Z,224.30
2022-12-31T16:31:18.068Z,129.10
2022-12-31T16:33:48.272Z,117.40
2022-12-31T16:36:22.042Z,129.00
2022-12-31T16:38:55.159Z,179.70
2022-12-31T16:41:25.301Z,197.80
2022-12-31T16:51:45.326Z,120.90
2022-12-31T16:54:54.852Z,115.90
2022-12-31T16:57:25.593Z,166.10
2022-12-31T17:00:00.284Z,147.00
2022-12-31T17:02:38.937Z,108.50
2022-12-31T17:21:14.749Z,209.30
2022-12-31T17:23:53.474Z,221.60
2022-12-31T17:26:26.287Z,199.40
2022-12-31T17:28:56.273Z,211.80
2022-12-31T17:31:39.150Z,141.00
2022-12-31T17:34:21.348Z,143.40
2022-12-31T17:37:11.585Z,210.20
2022-12-31T17:43:28.712Z,152.40
2022-12-31T17:49:38.411Z,139.00
2022-12-31T17:52:14.314Z,133.60
2022-12-31T17:54:42.336Z,100.60
2022-12-31T17:57:24.073Z,136.50
2022-12-31T17:59:52.002Z,116.60
2022-12-31T18:02:22.471Z,111.70
2022-12-31T18:09:06.705Z,177.50
2022-12-31T18:11:36.338Z,157.00
2022-12-31T18:14:04.743Z,114.10
2022-12-31T18:17:16.904Z,113.70
2022-12-31T18:22:35.660Z,313.20
2022-12-31T18:25:06.247Z,182.40
2022-12-31T18:27:34.768Z,134.60
2022-12-31T18:30:05.637Z,188.80
2022-12-31T18:32:37.033Z,116.60
2022-12-31T18:35:06.429Z,85.50
2022-12-31T18:37:35.105Z,87.60
2022-12-31T18:40:02.223Z,58.80
2022-12-31T18:42:29.728Z,119.20
2022-12-31T18:44:57.004Z,72.90
2022-12-31T18:47:24.816Z,118.50
2022-12-31T18:49:52.831Z,93.80
2022-12-31T18:52:22.977Z,78.40
2022-12-31T18:54:50.476Z,99.00
2022-12-31T18:57:18.523Z,98.70
2022-12-31T18:59:46.396Z,96.30
2022-12-31T19:02:20.595Z,92.20
2022-12-31T19:04:48.504Z,103.10
2022-12-31T19:07:15.657Z,154.80
2022-12-31T19:09:45.678Z,163.40
2022-12-31T19:12:14.832Z,131.80
2022-12-31T19:14:45.470Z,134.00
2022-12-31T19:17:21.357Z,126.80
2022-12-31T19:19:49.493Z,117.50
2022-12-31T19:22:17.451Z,113.60
2022-12-31T19:24:45.514Z,119.10
2022-12-31T19:54:12.447Z,79.30
2022-12-31T19:56:39.941Z,105.10
2022-12-31T19:59:09.752Z,128.30
2022-12-31T20:01:38.677Z,90.10
2022-12-31T20:04:07.660Z,98.30
2022-12-31T20:06:36.352Z,107.80
2022-12-31T20:09:04.544Z,166.30
2022-12-31T20:11:32.473Z,175.30
2022-12-31T20:14:00.335Z,114.20
2022-12-31T20:16:29.418Z,111.50
2022-12-31T20:18:58.283Z,95.80
2022-12-31T20:21:28.668Z,72.70
2022-12-31T20:23:56.779Z,102.80
2022-12-31T20:26:25.570Z,144.00
2022-12-31T20:28:53.647Z,145.10
2022-12-31T20:31:24.611Z,134.40
2022-12-31T20:33:55.372Z,81.70
2022-12-31T20:36:23.853Z,144.30
2022-12-31T20:38:51.687Z,105.60
2022-12-31T20:41:22.406Z,71.80
2022-12-31T20:43:50.842Z,75.20
2022-12-31T20:46:24.292Z,77.20
2022-12-31T20:49:01.160Z,80.30
2022-12-31T20:51:31.957Z,61.00
2022-12-31T20:54:11.319Z,71.80
2022-12-31T20:56:41.594Z,103.90
2022-12-31T20:59:18.465Z,256.80
2022-12-31T21:02:19.857Z,224.90
2022-12-31T21:04:33.799Z,255.60
2022-12-31T21:07:04.525Z,138.20
2022-12-31T21:09:31.941Z,92.20
2022-12-31T21:12:19.397Z,58.10
2022-12-31T21:14:47.544Z,53.90
2022-12-31T21:17:16.957Z,64.40
2022-12-31T21:19:49.049Z,92.90
2022-12-31T21:22:16.709Z,73.50
2022-12-31T21:24:45.005Z,81.40
2022-12-31T21:27:12.775Z,79.70
2022-12-31T21:30:01.933Z,83.80
2022-12-31T21:32:28.535Z,129.00
2022-12-31T21:35:31.497Z,139.20
2022-12-31T21:37:58.178Z,99.80
2022-12-31T21:40:29.400Z,131.40
2022-12-31T21:48:34.238Z,81.10
2022-12-31T21:51:12.505Z,103.70
2022-12-31T21:53:42.322Z,112.20
2022-12-31T21:56:11.607Z,141.80
2022-12-31T21:59:04.989Z,489.80
2022-12-31T22:01:51.700Z,660.50
2022-12-31T22:04:59.835Z,474.10
2022-12-31T22:07:08.460Z,239.70
2022-12-31T22:09:44.136Z,282.10
2022-12-31T22:12:52.675Z,307.50
2022-12-31T22:15:20.666Z,476.20
2022-12-31T22:17:49.072Z,326.10
2022-12-31T22:20:27.016Z,480.40
2022-12-31T22:22:55.538Z,848.70
2022-12-31T22:25:23.797Z,674.30
2022-12-31T22:28:27.520Z,563.50
2022-12-31T22:30:40.959Z,368.20
2022-12-31T22:33:08.858Z,340.80
2022-12-31T22:35:37.510Z,309.90
2022-12-31T22:38:11.652Z,311.50
2022-12-31T22:40:43.118Z,328.30
2022-12-31T22:43:11.600Z,339.60
2022-12-31T22:46:13.891Z,342.10
2022-12-31T22:48:42.314Z,338.20
2022-12-31T22:51:11.793Z,363.30
2022-12-31T22:53:43.126Z,394.10
2022-12-31T22:56:13.460Z,371.40
2022-12-31T22:58:41.498Z,316.20
2022-12-31T23:01:21.526Z,252.40
2022-12-31T23:03:50.757Z,151.90
2022-12-31T23:06:19.728Z,190.90
2022-12-31T23:09:06.948Z,164.90
2022-12-31T23:11:38.441Z,145.30
2022-12-31T23:14:25.713Z,198.50
2022-12-31T23:20:19.288Z,270.70
2022-12-31T23:23:06.155Z,317.00
2022-12-31T23:25:36.465Z,256.20
2022-12-31T23:28:09.120Z,178.50
2022-12-31T23:30:39.065Z,137.30
2022-12-31T23:33:08.015Z,228.50
2022-12-31T23:35:35.701Z,307.40
2022-12-31T23:38:07.184Z,311.90
2022-12-31T23:40:38.470Z,312.30
2022-12-31T23:43:08.196Z,303.80
2022-12-31T23:45:36.766Z,261.60
2022-12-31T23:52:29.195Z,241.90
2022-12-31T23:54:56.803Z,241.50
2022-12-31T23:57:24.946Z,224.30
2022-12-31T23:59:52.589Z,186.90
